Time;durP1;ratioP1;P1;durP2;ratioP2;P2;SDS_P1;SDS_P2;PMS_P1;PMS_P2;Temp;Humidity;BMP_temperature;BMP_pressure;BME280_temperature;BME280_humidity;BME280_pressure;Samples;Min_cycle;Max_cycle;Signal;HPM_P1;HPM_P2
2022/12/05 00:00:25;;;;;;;35.92;20.42;;;;;;;3.41;100.00;101772.53;2070762;28;41180;-79
2022/12/05 00:01:33;;;;;;;30.75;19.23;;;;;;;3.42;100.00;101784.88;2063324;28;27894;-79
2022/12/05 00:02:35;;;;;;;36.22;20.67;;;;;;;3.43;100.00;101783.16;2063370;28;40516;-79
2022/12/05 00:03:37;;;;;;;30.25;19.38;;;;;;;3.43;100.00;101784.03;2071280;28;25172;-79
2022/12/05 00:04:39;;;;;;;31.33;20.55;;;;;;;3.44;100.00;101782.28;2071645;28;30356;-79
2022/12/05 00:05:41;;;;;;;31.17;20.05;;;;;;;3.43;100.00;101773.44;2062722;28;33893;-79
2022/12/05 00:06:43;;;;;;;33.00;19.63;;;;;;;3.45;100.00;101784.06;2062997;28;27461;-79
2022/12/05 00:07:45;;;;;;;34.00;20.25;;;;;;;3.44;100.00;101777.88;2062728;28;33412;-79
2022/12/05 00:08:47;;;;;;;31.13;19.70;;;;;;;3.46;100.00;101771.72;2063035;28;37734;-79
2022/12/05 00:09:49;;;;;;;32.80;19.95;;;;;;;3.47;100.00;101776.16;2071877;28;31185;-79
2022/12/05 00:10:51;;;;;;;32.08;19.90;;;;;;;3.46;100.00;101772.59;2062581;28;40925;-79
2022/12/05 00:11:53;;;;;;;30.55;19.88;;;;;;;3.46;100.00;101783.19;2063778;28;20924;-79
2022/12/05 00:12:54;;;;;;;37.38;21.20;;;;;;;3.47;100.00;101773.53;2062593;28;36235;-79
2022/12/05 00:13:58;;;;;;;34.13;20.52;;;;;;;3.47;100.00;101770.88;2063359;28;38415;-79
2022/12/05 00:15:00;;;;;;;33.55;20.23;;;;;;;3.46;100.00;101769.97;2071746;28;20055;-79
2022/12/05 00:16:11;;;;;;;31.05;19.95;;;;;;;3.48;100.00;101770.88;2071883;28;35190;-78
2022/12/05 00:17:12;;;;;;;30.42;19.55;;;;;;;3.47;100.00;101770.88;2062911;28;31773;-79
2022/12/05 00:18:14;;;;;;;35.15;21.10;;;;;;;3.48;100.00;101770.88;2064512;28;20047;-79
2022/12/05 00:19:16;;;;;;;32.78;19.50;;;;;;;3.49;100.00;101769.16;2062685;28;34979;-79
2022/12/05 00:20:17;;;;;;;33.15;19.77;;;;;;;3.49;100.00;101771.78;2062392;28;38365;-79
2022/12/05 00:21:23;;;;;;;31.25;20.00;;;;;;;3.50;100.00;101776.19;2070576;28;30181;-79
2022/12/05 00:22:25;;;;;;;33.38;20.10;;;;;;;3.51;100.00;101770.06;2063318;28;38537;-79
2022/12/05 00:23:27;;;;;;;32.88;20.50;;;;;;;3.50;100.00;101771.81;2063322;28;36281;-79
2022/12/05 00:24:29;;;;;;;33.97;20.77;;;;;;;3.50;100.00;101768.25;2072291;28;23492;-79
2022/12/05 00:25:31;;;;;;;33.20;20.17;;;;;;;3.50;100.00;101777.13;2062500;28;32947;-78
2022/12/05 00:26:33;;;;;;;32.42;20.50;;;;;;;3.50;100.00;101770.91;2063076;28;38671;-79
2022/12/05 00:27:36;;;;;;;35.08;21.35;;;;;;;3.53;100.00;101765.69;2055176;28;20047;-79
2022/12/05 00:28:40;;;;;;;32.70;19.55;;;;;;;3.53;100.00;101776.28;2048158;28;20147;-79
2022/12/05 00:29:42;;;;;;;32.30;20.33;;;;;;;3.52;100.00;101772.75;2055533;28;20150;-79
2022/12/05 00:30:45;;;;;;;33.05;19.88;;;;;;;3.52;100.00;101772.75;2055674;28;20055;-78
2022/12/05 00:31:51;;;;;;;33.00;20.35;;;;;;;3.53;100.00;101771.88;2055688;28;20183;-78
2022/12/05 00:32:54;;;;;;;34.13;20.35;;;;;;;3.56;100.00;101781.63;2048281;28;20996;-79
2022/12/05 00:34:01;;;;;;;34.78;20.25;;;;;;;3.54;100.00;101783.38;2056102;28;20035;-79
2022/12/05 00:35:05;;;;;;;34.03;19.25;;;;;;;3.55;100.00;101786.06;2068098;23;20055;-67
2022/12/05 00:36:20;;;;;;;32.58;19.48;;;;;;;3.57;100.00;101775.47;2050236;28;20119;-68
2022/12/05 00:37:26;;;;;;;30.90;19.45;;;;;;;3.57;100.00;101779.03;2057782;28;20151;-67
2022/12/05 00:38:30;;;;;;;33.28;19.58;;;;;;;3.57;100.00;101778.09;2063620;28;20051;-67
2022/12/05 00:39:38;;;;;;;34.30;19.70;;;;;;;3.58;100.00;101774.63;2055244;28;20142;-67
2022/12/05 00:40:43;;;;;;;33.08;19.55;;;;;;;3.58;100.00;101778.16;2056149;28;20043;-67
2022/12/05 00:41:46;;;;;;;32.40;19.58;;;;;;;3.57;100.00;101767.53;2063575;28;20051;-67
2022/12/05 00:42:50;;;;;;;35.75;19.95;;;;;;;3.58;100.00;101775.50;2064071;28;20116;-67
2022/12/05 00:43:56;;;;;;;33.33;20.10;;;;;;;3.58;100.00;101770.19;2063945;28;20169;-67
2022/12/05 00:45:00;;;;;;;30.95;20.02;;;;;;;3.58;100.00;101774.63;2056220;28;20928;-67
2022/12/05 00:46:08;;;;;;;32.55;20.08;;;;;;;3.58;100.00;101766.66;2056472;28;20059;-67
2022/12/05 00:47:12;;;;;;;29.83;19.48;;;;;;;3.57;100.00;101767.53;2047302;28;20056;-67
2022/12/05 00:48:16;;;;;;;36.13;21.00;;;;;;;3.57;100.00;101767.53;2049287;28;20036;-67
2022/12/05 00:49:22;;;;;;;34.90;20.52;;;;;;;3.57;100.00;101765.78;2063921;28;20047;-67
2022/12/05 00:50:26;;;;;;;32.35;20.33;;;;;;;3.58;100.00;101764.91;2055026;28;20105;-67
2022/12/05 00:51:39;;;;;;;34.00;19.85;;;;;;;3.56;100.00;101764.00;2055184;28;20090;-67
2022/12/05 00:52:44;;;;;;;33.90;20.38;;;;;;;3.57;100.00;101763.13;2055310;28;20040;-67
2022/12/05 00:53:49;;;;;;;33.13;20.58;;;;;;;3.58;100.00;101764.03;2056798;28;27085;-67
2022/12/05 00:54:53;;;;;;;35.90;20.85;;;;;;;3.58;100.00;101762.25;2055271;28;20048;-67
2022/12/05 00:56:10;;;;;;;33.03;19.70;;;;;;;3.59;100.00;101768.47;2056774;28;20124;-66
2022/12/05 00:57:13;;;;;;;32.42;19.45;;;;;;;3.60;100.00;101764.94;2055421;28;20102;-65
2022/12/05 00:58:17;;;;;;;34.13;19.38;;;;;;;3.59;100.00;101764.06;2057169;28;20817;-67
2022/12/05 00:59:21;;;;;;;34.08;20.10;;;;;;;3.60;100.00;101763.19;2054903;28;20039;-67
2022/12/05 01:00:25;;;;;;;34.63;20.17;;;;;;;3.60;100.00;101759.66;2055846;28;20036;-67
2022/12/05 01:01:33;;;;;;;33.60;20.15;;;;;;;3.59;100.00;101757.88;2063228;28;20096;-67
2022/12/05 01:02:37;;;;;;;32.58;19.98;;;;;;;3.58;100.00;101756.97;2054363;28;37786;-67
2022/12/05 01:03:45;;;;;;;35.83;19.83;;;;;;;3.60;100.00;101762.28;2055467;28;32510;-68
2022/12/05 01:04:51;;;;;;;30.70;19.25;;;;;;;3.60;100.00;101763.19;2063949;28;20035;-68
2022/12/05 01:05:58;;;;;;;32.22;19.25;;;;;;;3.60;100.00;101757.00;2057683;28;20050;-67
2022/12/05 01:07:03;;;;;;;34.08;19.95;;;;;;;3.60;100.00;101759.66;2057735;28;20070;-68
2022/12/05 01:08:07;;;;;;;34.50;20.25;;;;;;;3.61;100.00;101766.75;2055001;28;20046;-67
2022/12/05 01:09:13;;;;;;;33.40;19.88;;;;;;;3.61;100.00;101764.97;2055575;28;20112;-67
2022/12/05 01:10:16;;;;;;;32.88;19.42;;;;;;;3.63;100.00;101762.34;2055671;28;20046;-67
2022/12/05 01:11:20;;;;;;;34.60;20.05;;;;;;;3.63;100.00;101765.00;2047828;28;20132;-67
2022/12/05 01:12:26;;;;;;;34.40;21.05;;;;;;;3.63;100.00;101765.00;2056066;28;20047;-67
2022/12/05 01:13:31;;;;;;;32.70;19.17;;;;;;;3.62;100.00;101766.78;2063329;28;21262;-67
2022/12/05 01:14:34;;;;;;;32.15;20.02;;;;;;;3.62;100.00;101772.06;2055245;28;20039;-67
2022/12/05 01:15:38;;;;;;;33.58;21.20;;;;;;;3.63;100.00;101762.34;2048045;28;20122;-65
2022/12/05 01:16:43;;;;;;;35.60;19.73;;;;;;;3.61;100.00;101769.38;2056512;28;31716;-67
2022/12/05 01:17:51;;;;;;;34.22;20.00;;;;;;;3.62;100.00;101769.41;2056610;28;20055;-67
2022/12/05 01:18:55;;;;;;;34.70;20.42;;;;;;;3.61;100.00;101761.44;2058251;28;20801;-67
2022/12/05 01:19:59;;;;;;;31.33;19.75;;;;;;;3.63;100.00;101767.66;2065167;28;20161;-67
2022/12/05 01:21:05;;;;;;;33.80;19.67;;;;;;;3.60;100.00;101763.19;2056046;28;32274;-67
2022/12/05 01:22:08;;;;;;;32.08;19.70;;;;;;;3.61;100.00;101766.75;2057717;28;20073;-67
2022/12/05 01:23:12;;;;;;;37.50;21.50;;;;;;;3.62;100.00;101771.16;2056176;28;21036;-68
2022/12/05 01:24:16;;;;;;;35.95;21.50;;;;;;;3.62;100.00;101772.06;2056953;28;20047;-67
2022/12/05 01:25:20;;;;;;;35.28;20.60;;;;;;;3.60;100.00;101767.59;2065375;28;20035;-67
2022/12/05 01:26:24;;;;;;;35.70;20.20;;;;;;;3.61;100.00;101778.22;2065430;28;20042;-67
2022/12/05 01:27:27;;;;;;;33.30;20.75;;;;;;;3.62;100.00;101773.78;2056596;28;20078;-67
2022/12/05 01:28:29;;;;;;;35.22;19.95;;;;;;;3.61;100.00;101774.69;2057100;28;20058;-67
2022/12/05 01:29:36;;;;;;;35.35;21.73;;;;;;;3.60;100.00;101783.47;2065595;28;20031;-67
2022/12/05 01:30:46;;;;;;;36.83;21.50;;;;;;;3.60;100.00;101784.34;2065616;28;20043;-67
2022/12/05 01:31:51;;;;;;;34.05;21.23;;;;;;;3.60;100.00;101783.47;2056346;28;20047;-67
2022/12/05 01:32:54;;;;;;;33.53;20.73;;;;;;;3.60;100.00;101788.78;2048826;28;20099;-67
2022/12/05 01:34:00;;;;;;;37.67;21.58;;;;;;;3.61;100.00;101786.16;2049293;28;20050;-67
2022/12/05 01:35:11;;;;;;;38.08;21.80;;;;;;;3.61;100.00;101786.16;2058678;28;20044;-67
2022/12/05 01:36:17;;;;;;;33.95;21.45;;;;;;;3.60;100.00;101788.78;2064589;28;26800;-67
2022/12/05 01:37:19;;;;;;;36.40;20.70;;;;;;;3.60;100.00;101776.41;2056364;28;33383;-67
2022/12/05 01:38:22;;;;;;;35.72;20.27;;;;;;;3.60;100.00;101784.34;2056282;28;20051;-67
2022/12/05 01:39:25;;;;;;;33.53;20.70;;;;;;;3.60;100.00;101772.88;2065252;28;20161;-67
2022/12/05 01:40:29;;;;;;;36.95;21.05;;;;;;;3.60;100.00;101784.34;2065268;28;20054;-67
2022/12/05 01:41:42;;;;;;;35.65;21.30;;;;;;;3.60;100.00;101786.13;2065208;28;20038;-67
2022/12/05 01:42:44;;;;;;;37.88;21.42;;;;;;;3.59;100.00;101771.13;2065141;28;20897;-67
2022/12/05 01:44:25;;;;;;;34.47;20.48;;;;;;;3.58;100.00;101769.31;2064728;28;36577;-67
2022/12/05 01:45:37;;;;;;;35.72;20.50;;;;;;;3.58;100.00;101779.91;2064696;28;33518;-67
2022/12/05 01:46:50;;;;;;;37.78;20.77;;;;;;;3.58;100.00;101775.50;2065139;28;20464;-67
2022/12/05 01:47:53;;;;;;;36.10;20.30;;;;;;;3.57;100.00;101780.75;2065530;28;20085;-67
2022/12/05 01:49:15;;;;;;;36.03;20.30;;;;;;;3.56;100.00;101766.63;2065012;28;20165;-67
2022/12/05 01:50:22;;;;;;;36.72;20.20;;;;;;;3.56;100.00;101776.34;2056708;28;20126;-68
2022/12/05 01:51:26;;;;;;;38.70;21.58;;;;;;;3.55;100.00;101764.88;2057940;28;20905;-67
2022/12/05 01:52:30;;;;;;;37.40;21.95;;;;;;;3.57;100.00;101772.81;2064731;28;28483;-65
2022/12/05 01:53:37;;;;;;;36.30;20.42;;;;;;;3.55;100.00;101763.94;2055790;28;29489;-67
2022/12/05 01:54:42;;;;;;;35.33;21.33;;;;;;;3.55;100.00;101763.94;2052878;28;36505;-67
2022/12/05 01:55:47;;;;;;;33.95;20.88;;;;;;;3.55;100.00;101763.94;2056522;28;20043;-67
2022/12/05 01:56:57;;;;;;;36.20;21.20;;;;;;;3.56;100.00;101757.81;2047954;28;34751;-67
2022/12/05 01:58:00;;;;;;;36.13;21.15;;;;;;;3.56;100.00;101765.75;2050116;28;20146;-67
2022/12/05 01:59:07;;;;;;;33.38;20.48;;;;;;;3.57;100.00;101778.09;2048357;28;20110;-67
2022/12/05 02:00:14;;;;;;;37.17;22.02;;;;;;;3.54;100.00;101757.78;2049439;28;31988;-67
2022/12/05 02:01:17;;;;;;;36.28;21.20;;;;;;;3.55;100.00;101759.56;2047878;28;33425;-67
2022/12/05 02:02:19;;;;;;;37.70;22.45;;;;;;;3.55;100.00;101758.66;2049009;28;24687;-67
2022/12/05 02:03:21;;;;;;;38.63;21.58;;;;;;;3.54;100.00;101757.78;2047477;28;40775;-68
2022/12/05 02:04:26;;;;;;;35.13;20.67;;;;;;;3.54;100.00;101751.59;2048865;28;20105;-67
2022/12/05 02:05:31;;;;;;;37.92;22.08;;;;;;;3.54;100.00;101756.91;2055477;28;36734;-67
2022/12/05 02:06:33;;;;;;;37.35;21.52;;;;;;;3.53;100.00;101761.28;2056169;28;29906;-68
2022/12/05 02:07:38;;;;;;;37.17;21.55;;;;;;;3.56;100.00;101757.81;2056308;28;32484;-68
2022/12/05 02:08:41;;;;;;;38.70;22.67;;;;;;;3.56;100.00;101755.16;2048155;28;37755;-67
2022/12/05 02:09:43;;;;;;;39.22;22.13;;;;;;;3.54;100.00;101755.13;2048885;28;20043;-67
2022/12/05 02:10:53;;;;;;;37.63;21.25;;;;;;;3.55;100.00;101756.94;2047730;28;38868;-67
2022/12/05 02:11:59;;;;;;;36.60;21.30;;;;;;;3.55;100.00;101753.38;2049266;28;27375;-67
2022/12/05 02:13:28;;;;;;;38.45;21.55;;;;;;;3.55;100.00;101754.28;2048189;28;31846;-67
2022/12/05 02:14:35;;;;;;;35.90;20.73;;;;;;;3.56;100.00;101749.88;2019624;29;41974;-68
2022/12/05 02:16:07;;;;;;;37.13;21.58;;;;;;;3.55;100.00;101738.41;2049278;28;20790;-68
2022/12/05 02:17:56;;;;;;;36.80;22.30;;;;;;;3.54;100.00;101741.00;2031541;29;35908;-67
2022/12/05 02:19:41;;;;;;;36.63;20.40;;;;;;;3.54;100.00;101743.66;2047946;28;38463;-67
2022/12/05 02:21:02;;;;;;;33.40;19.98;;;;;;;3.56;100.00;101755.16;2048060;28;39670;-67
2022/12/05 02:22:48;;;;;;;34.42;21.05;;;;;;;3.55;100.00;101746.34;2050540;28;37630;-68
2022/12/05 02:24:22;;;;;;;35.70;21.08;;;;;;;3.55;100.00;101748.06;2057015;28;20044;-67
2022/12/05 02:25:51;;;;;;;35.33;20.48;;;;;;;3.54;100.00;101746.31;2056653;28;32841;-68
2022/12/05 02:27:39;;;;;;;39.63;21.85;;;;;;;3.55;100.00;101740.13;2056782;28;20046;-67
2022/12/05 02:28:52;;;;;;;36.00;20.55;;;;;;;3.56;100.00;101741.94;2056310;28;36464;-67
2022/12/05 02:30:10;;;;;;;37.90;21.85;;;;;;;3.56;100.00;101741.94;2048158;28;29419;-67
2022/12/05 02:31:26;;;;;;;34.05;20.95;;;;;;;3.55;100.00;101737.47;2043039;28;35208;-67
2022/12/05 02:32:54;;;;;;;33.75;20.70;;;;;;;3.57;100.00;101735.75;2041840;28;25831;-68
2022/12/05 02:34:17;;;;;;;41.83;21.38;;;;;;;3.56;100.00;101733.97;2053756;28;20900;-67
2022/12/05 02:35:27;;;;;;;36.47;21.63;;;;;;;3.56;100.00;101742.81;2047503;28;40566;-67
2022/12/05 02:36:52;;;;;;;37.97;22.42;;;;;;;3.57;100.00;101736.66;2052067;28;20043;-67
2022/12/05 02:38:07;;;;;;;33.60;20.08;;;;;;;3.58;100.00;101742.84;2056593;28;34111;-67
2022/12/05 02:39:55;;;;;;;37.03;20.83;;;;;;;3.57;100.00;101734.00;2048284;28;20051;-68
2022/12/05 02:41:20;;;;;;;38.15;21.02;;;;;;;3.59;100.00;101742.00;2055512;28;35518;-67
2022/12/05 02:42:37;;;;;;;32.13;20.33;;;;;;;3.59;100.00;101736.69;2056452;28;29637;-68
2022/12/05 02:44:09;;;;;;;36.28;20.70;;;;;;;3.60;100.00;101738.47;2056255;28;34055;-68
2022/12/05 02:45:16;;;;;;;35.85;20.63;;;;;;;3.60;100.00;101743.75;2039010;29;36494;-68
2022/12/05 02:46:22;;;;;;;36.47;21.58;;;;;;;3.60;100.00;101741.09;2044218;28;40487;-68
2022/12/05 02:47:29;;;;;;;34.25;20.48;;;;;;;3.59;100.00;101734.94;2055429;28;37633;-68
2022/12/05 02:48:33;;;;;;;35.05;20.40;;;;;;;3.59;100.00;101734.94;2056278;28;29338;-68
2022/12/05 02:49:36;;;;;;;37.60;21.77;;;;;;;3.61;100.00;101734.97;2046917;28;43417;-68
2022/12/05 02:50:41;;;;;;;36.33;22.55;;;;;;;3.62;100.00;101739.38;2040709;28;33409;-68
2022/12/05 02:51:47;;;;;;;38.97;21.23;;;;;;;3.60;100.00;101736.69;2039981;28;35996;-67
2022/12/05 02:52:53;;;;;;;34.05;21.33;;;;;;;3.61;100.00;101734.97;2040868;28;35757;-68
2022/12/05 02:54:01;;;;;;;36.35;21.77;;;;;;;3.60;100.00;101736.69;2048574;28;30307;-68
2022/12/05 02:55:04;;;;;;;37.30;21.35;;;;;;;3.59;100.00;101734.94;2053745;28;30417;-68
2022/12/05 02:56:09;;;;;;;37.03;22.55;;;;;;;3.61;100.00;101742.91;2056170;28;33791;-67
2022/12/05 02:57:13;;;;;;;36.60;22.63;;;;;;;3.60;100.00;101734.03;2047686;28;20362;-68
2022/12/05 02:58:29;;;;;;;35.60;21.50;;;;;;;3.59;100.00;101742.88;2040574;28;37905;-68
2022/12/05 02:59:33;;;;;;;33.42;20.75;;;;;;;3.57;100.00;101741.97;2042419;28;20112;-67
2022/12/05 03:00:41;;;;;;;38.33;21.58;;;;;;;3.56;100.00;101742.81;2046463;28;33992;-67
2022/12/05 03:01:46;;;;;;;35.75;20.77;;;;;;;3.57;100.00;101746.34;2055473;28;35806;-67
2022/12/05 03:02:54;;;;;;;37.22;21.98;;;;;;;3.58;100.00;101740.19;2047512;28;35262;-67
2022/12/05 03:04:00;;;;;;;38.80;22.23;;;;;;;3.57;100.00;101743.69;2047755;28;27628;-67
2022/12/05 03:05:26;;;;;;;39.33;22.40;;;;;;;3.56;100.00;101741.94;2041697;28;20059;-67
2022/12/05 03:06:38;;;;;;;37.85;21.10;;;;;;;3.55;100.00;101746.34;2051662;28;34440;-68
2022/12/05 03:07:45;;;;;;;33.60;19.92;;;;;;;3.57;100.00;101754.28;2056673;28;20042;-67
2022/12/05 03:08:58;;;;;;;39.45;22.92;;;;;;;3.56;100.00;101747.22;2055879;28;30800;-68
2022/12/05 03:10:05;;;;;;;37.35;21.33;;;;;;;3.56;100.00;101756.03;2052692;28;40481;-67
2022/12/05 03:11:08;;;;;;;38.75;23.10;;;;;;;3.56;100.00;101749.88;2049722;28;34337;-67
2022/12/05 03:12:15;;;;;;;35.58;21.63;;;;;;;3.56;100.00;101755.16;2055003;28;34915;-68
2022/12/05 03:13:26;;;;;;;37.35;22.08;;;;;;;3.56;100.00;101749.88;2056548;28;30655;-68
2022/12/05 03:15:07;;;;;;;;;;;;;;;3.54;100.00;101749.84;2056203;28;33277;-68
2022/12/05 03:16:17;;;;;;;36.45;21.15;;;;;;;3.55;100.00;101748.06;2048852;28;33756;-67
2022/12/05 03:17:30;;;;;;;29.95;17.45;;;;;;;3.54;100.00;101744.53;2055896;28;39597;-67
2022/12/05 03:18:44;;;;;;;39.17;22.23;;;;;;;3.54;100.00;101746.31;2055008;28;36778;-68
2022/12/05 03:20:13;;;;;;;35.03;20.52;;;;;;;3.55;100.00;101748.06;2052589;28;32471;-68
2022/12/05 03:21:44;;;;;;;35.58;21.67;;;;;;;3.54;100.00;101749.84;2052646;28;35968;-67
2022/12/05 03:23:00;;;;;;;36.70;21.95;;;;;;;3.54;100.00;101747.19;2054916;28;34456;-67
2022/12/05 03:24:10;;;;;;;39.70;21.27;;;;;;;3.53;100.00;101742.75;2052413;28;25663;-67
2022/12/05 03:25:13;;;;;;;37.45;21.50;;;;;;;3.52;100.00;101740.09;2058347;28;20067;-67
2022/12/05 03:26:33;;;;;;;37.05;21.85;;;;;;;3.51;100.00;101744.47;2054898;28;40478;-69
2022/12/05 03:27:54;;;;;;;40.28;22.08;;;;;;;3.52;100.00;101742.75;2058369;28;32248;-67
2022/12/05 03:29:21;;;;;;;37.17;21.80;;;;;;;3.51;100.00;101740.94;2054765;28;31932;-69
2022/12/05 03:30:24;;;;;;;38.78;21.95;;;;;;;3.51;100.00;101739.19;2061177;28;20035;-67
2022/12/05 03:32:04;;;;;;;36.15;21.90;;;;;;;3.51;100.00;101741.81;2055101;28;34447;-67
2022/12/05 03:33:26;;;;;;;;;;;;;;;3.51;100.00;101738.28;2052672;28;25480;-69
2022/12/05 03:34:42;;;;;;;38.28;20.27;;;;;;;3.50;100.00;101741.78;2058589;28;29822;-69
2022/12/05 03:36:10;;;;;;;37.83;21.60;;;;;;;3.49;100.00;101740.03;2063721;28;39888;-67
2022/12/05 03:38:00;;;;;;;36.08;21.08;;;;;;;3.49;100.00;101747.97;2063282;28;31847;-67
2022/12/05 03:39:24;;;;;;;28.42;16.13;;;;;;;3.49;100.00;101734.72;2057602;28;34762;-69
2022/12/05 03:40:46;;;;;;;36.85;21.17;;;;;;;3.47;100.00;101734.69;2055040;28;20055;-67
2022/12/05 03:42:19;;;;;;;36.47;21.70;;;;;;;3.48;100.00;101738.22;2049688;28;31828;-68
2022/12/05 03:43:33;;;;;;;34.92;21.02;;;;;;;3.49;100.00;101737.38;2053658;28;28496;-67
2022/12/05 03:44:56;;;;;;;39.53;22.35;;;;;;;3.48;100.00;101747.06;2059791;28;37665;-67
2022/12/05 03:46:28;;;;;;;36.45;20.92;;;;;;;3.48;100.00;101740.88;2064320;28;20878;-67
2022/12/05 03:48:04;;;;;;;38.17;21.23;;;;;;;3.48;100.00;101735.56;2054748;28;39873;-67
2022/12/05 03:49:20;;;;;;;35.88;20.88;;;;;;;3.47;100.00;101731.16;2061395;28;39471;-67
2022/12/05 03:50:26;;;;;;;38.28;21.85;;;;;;;3.49;100.00;101740.03;2063296;28;33976;-67
2022/12/05 03:51:40;;;;;;;40.47;22.95;;;;;;;3.48;100.00;101735.56;2054946;28;33743;-67
2022/12/05 03:52:52;;;;;;;38.78;22.23;;;;;;;3.47;100.00;101733.81;2057680;28;35610;-67
2022/12/05 03:54:30;;;;;;;35.55;21.08;;;;;;;3.48;100.00;101730.28;2055778;28;20090;-67
2022/12/05 03:55:37;;;;;;;37.72;22.45;;;;;;;3.48;100.00;101736.47;2044595;28;41703;-67
2022/12/05 03:56:49;;;;;;;35.83;21.45;;;;;;;3.46;100.00;101727.59;2041437;28;20043;-67
2022/12/05 03:58:00;;;;;;;41.28;22.85;;;;;;;3.49;100.00;101732.06;2048877;28;37755;-67
2022/12/05 03:59:18;;;;;;;36.70;20.38;;;;;;;3.48;100.00;101735.56;2055028;28;35108;-67
2022/12/05 04:00:23;;;;;;;35.17;21.42;;;;;;;3.49;100.00;101742.66;2046269;28;35860;-67
2022/12/05 04:01:28;;;;;;;37.25;22.58;;;;;;;3.49;100.00;101737.38;2048226;28;37843;-67
2022/12/05 04:02:59;;;;;;;37.30;22.23;;;;;;;3.48;100.00;101733.81;2055517;28;20051;-67
2022/12/05 04:04:12;;;;;;;;;;;;;;;3.49;100.00;101740.91;2055734;28;40730;-67
2022/12/05 04:05:34;;;;;;;35.08;20.65;;;;;;;3.48;100.00;101736.47;2056670;28;20830;-67
2022/12/05 04:06:40;;;;;;;33.58;20.90;;;;;;;3.49;100.00;101740.03;2046928;28;34367;-65
2022/12/05 04:07:46;;;;;;;36.55;21.80;;;;;;;3.49;100.00;101740.91;2049096;28;39632;-67
2022/12/05 04:08:55;;;;;;;38.13;21.83;;;;;;;3.49;100.00;101734.72;2047075;28;37409;-66
2022/12/05 04:10:05;;;;;;;37.50;21.80;;;;;;;3.49;100.00;101743.56;2048578;28;36209;-67
2022/12/05 04:11:17;;;;;;;36.33;21.25;;;;;;;3.49;100.00;101738.25;2056131;28;33036;-67
2022/12/05 04:12:26;;;;;;;33.10;20.77;;;;;;;3.49;100.00;101743.56;2047178;28;34284;-66
2022/12/05 04:13:46;;;;;;;37.58;22.52;;;;;;;3.50;100.00;101742.69;2049170;28;36696;-66
2022/12/05 04:14:54;;;;;;;35.80;21.05;;;;;;;3.50;100.00;101740.06;2046939;28;33895;-67
2022/12/05 04:17:55;;;;;;;35.42;22.05;;;;;;;3.49;100.00;101735.63;2047033;28;30976;-66
2022/12/05 04:19:23;;;;;;;36.63;20.92;;;;;;;3.49;100.00;101735.63;2054484;28;37016;-69
2022/12/05 04:21:58;;;;;;;35.33;21.38;;;;;;;3.50;100.00;101741.78;2055994;28;31610;-66
2022/12/05 04:23:01;;;;;;;38.83;22.00;;;;;;;3.50;100.00;101741.78;2055108;28;30130;-66
2022/12/05 04:26:13;;;;;;;39.67;21.00;;;;;;;3.50;100.00;101745.34;2047013;28;37269;-67
2022/12/05 04:27:35;;;;;;;35.95;21.35;;;;;;;3.51;100.00;101748.88;2055394;28;35284;-67
2022/12/05 04:28:53;;;;;;;39.28;22.38;;;;;;;3.51;100.00;101743.59;2046780;28;33707;-67
2022/12/05 04:30:20;;;;;;;39.15;21.80;;;;;;;3.50;100.00;101736.50;2043254;28;27456;-67
2022/12/05 04:31:31;;;;;;;36.58;21.13;;;;;;;3.51;100.00;101752.41;2052395;28;37288;-67
2022/12/05 04:32:42;;;;;;;38.25;22.50;;;;;;;3.50;100.00;101742.69;2047372;28;37357;-67
2022/12/05 04:34:06;;;;;;;34.45;21.02;;;;;;;3.52;100.00;101753.31;2049286;28;38479;-67
2022/12/05 04:35:24;;;;;;;39.22;21.23;;;;;;;3.51;100.00;101743.59;2055049;28;35198;-66
2022/12/05 04:36:34;;;;;;;38.05;22.02;;;;;;;3.51;100.00;101740.94;2046915;28;32247;-67
2022/12/05 04:37:41;;;;;;;37.55;20.85;;;;;;;3.50;100.00;101740.06;2048831;28;38303;-67
2022/12/05 04:39:13;;;;;;;37.55;21.90;;;;;;;3.50;100.00;101744.44;2056301;28;33324;-67
2022/12/05 04:40:32;;;;;;;36.83;21.25;;;;;;;3.50;100.00;101739.13;2036911;28;37165;-67
2022/12/05 04:41:53;;;;;;;37.38;22.25;;;;;;;3.50;100.00;101733.84;2044632;28;30588;-67
2022/12/05 04:42:58;;;;;;;41.25;22.35;;;;;;;3.49;100.00;101743.56;2050889;28;40429;-67
2022/12/05 04:44:06;;;;;;;38.53;21.75;;;;;;;3.51;100.00;101744.47;2055066;28;20913;-67
2022/12/05 04:45:16;;;;;;;36.45;21.60;;;;;;;3.50;100.00;101745.34;2047075;28;38348;-67
2022/12/05 04:46:23;;;;;;;36.63;21.70;;;;;;;3.50;100.00;101741.78;2040862;28;35792;-67
2022/12/05 04:47:33;;;;;;;37.20;21.75;;;;;;;3.49;100.00;101737.38;2048739;28;39599;-67
2022/12/05 04:48:40;;;;;;;34.33;20.33;;;;;;;3.50;100.00;101744.44;2047205;28;30628;-67
2022/12/05 04:49:44;;;;;;;38.17;22.23;;;;;;;3.49;100.00;101740.91;2049142;28;20626;-67
2022/12/05 04:50:53;;;;;;;40.10;21.83;;;;;;;3.51;100.00;101749.75;2048542;28;27290;-67
2022/12/05 04:52:01;;;;;;;40.83;21.65;;;;;;;3.50;100.00;101739.13;2049401;28;31772;-67
2022/12/05 04:53:04;;;;;;;39.97;21.95;;;;;;;3.50;100.00;101741.78;2056461;28;32853;-67
2022/12/05 04:54:26;;;;;;;39.25;23.00;;;;;;;3.50;100.00;101744.44;2056313;28;34695;-67
2022/12/05 04:55:31;;;;;;;36.05;21.73;;;;;;;3.51;100.00;101747.13;2048258;28;34311;-67
2022/12/05 04:56:37;;;;;;;39.85;21.83;;;;;;;3.51;100.00;101754.19;2041311;28;31379;-67
2022/12/05 04:58:09;;;;;;;37.75;21.48;;;;;;;3.51;100.00;101738.28;2049750;28;32835;-67
2022/12/05 04:59:11;;;;;;;39.63;20.77;;;;;;;3.52;100.00;101750.69;2048193;28;36928;-66
2022/12/05 05:00:13;;;;;;;35.40;20.70;;;;;;;3.53;100.00;101744.50;2052306;28;20031;-66
2022/12/05 05:01:32;;;;;;;38.50;22.08;;;;;;;3.54;100.00;101743.66;2047762;28;40137;-66
2022/12/05 05:02:47;;;;;;;35.50;20.87;;;;;;;3.52;100.00;101743.63;2050796;28;34675;-66
2022/12/05 05:04:10;;;;;;;33.03;18.80;;;;;;;3.53;100.00;101745.38;2048842;28;32036;-66
2022/12/05 05:05:17;;;;;;;35.25;19.70;;;;;;;3.53;100.00;101745.38;2052113;28;29041;-65
2022/12/05 05:06:18;;;;;;;30.98;19.08;;;;;;;3.55;100.00;101742.78;2056751;28;29278;-66
2022/12/05 05:07:20;;;;;;;33.90;19.17;;;;;;;3.56;100.00;101744.56;2047866;28;35962;-66
2022/12/05 05:08:27;;;;;;;30.92;19.40;;;;;;;3.56;100.00;101744.56;2048341;28;33377;-65
2022/12/05 05:09:29;;;;;;;34.83;20.45;;;;;;;3.56;100.00;101740.16;2056631;28;33514;-67
2022/12/05 05:10:45;;;;;;;30.55;18.40;;;;;;;3.56;100.00;101736.63;2056549;28;28970;-66
2022/12/05 05:11:48;;;;;;;33.10;18.58;;;;;;;3.57;100.00;101741.03;2057529;28;20050;-65
2022/12/05 05:12:54;;;;;;;30.67;18.45;;;;;;;3.58;100.00;101742.84;2056249;28;37395;-65
2022/12/05 05:13:59;;;;;;;31.20;17.70;;;;;;;3.58;100.00;101737.53;2057422;28;20047;-65
2022/12/05 05:15:00;;;;;;;30.35;17.63;;;;;;;3.59;100.00;101734.94;2056080;28;38185;-65
2022/12/05 05:16:03;;;;;;;31.25;17.73;;;;;;;3.59;100.00;101731.41;2056598;28;32412;-65
2022/12/05 05:17:04;;;;;;;29.08;17.83;;;;;;;3.60;100.00;101735.81;2056599;28;35357;-66
2022/12/05 05:18:09;;;;;;;31.48;17.67;;;;;;;3.60;100.00;101735.81;2056635;28;37489;-65
2022/12/05 05:19:10;;;;;;;30.63;17.50;;;;;;;3.60;100.00;101730.50;2056843;28;20040;-65
2022/12/05 05:20:25;;;;;;;29.00;17.60;;;;;;;3.61;100.00;101733.19;2047916;28;35401;-67
2022/12/05 05:21:32;;;;;;;30.13;17.63;;;;;;;3.61;100.00;101735.84;2049748;28;37616;-65
2022/12/05 05:22:34;;;;;;;27.40;16.38;;;;;;;3.63;100.00;101730.59;2056787;28;32928;-65
2022/12/05 05:23:35;;;;;;;31.42;16.50;;;;;;;3.64;100.00;101740.28;2047496;28;35447;-66
2022/12/05 05:24:37;;;;;;;28.15;17.15;;;;;;;3.63;100.00;101736.75;2051409;28;32652;-66
2022/12/05 05:25:39;;;;;;;28.48;17.58;;;;;;;3.64;100.00;101732.34;2064207;28;32996;-65